Lincoln, NE (68522)

5:35 PM CST on February 23, 2017 (GMT -0600)
Gegenüber West Van Dorn @ SW15th | | Change Station
Active Advisory: Winter Weather Advisory

Elev 1200 ft 40.79 °N, 96.74 °W | Updated 28 seconds ago

Overcast
Overcast
38.3 °F
Feels Like 34 °F
N
5.8
Wind Variable Wind from North
Gusts 9.8 mph

Today
High -- | Low -- °F
--% Chance of Precip.
Yesterday
High -- | Low -- °F
Precip. -- in
Pressure 29.59 in
Visibility 2.0 miles
Clouds Overcast 700 ft
Windchill 34 °F
Dew Point 38 °F
Humidity 98%
Rainfall 0.04 in
Snow Depth Not available.
7:09 AM 6:11 PM
Waning Crescent, 8% visible
SPECI KLNK 232317Z 03011KT 2SM -RA BR OVC007 03/02 A2959 RMK AO2 LTG DSNT NE AND E TSE03 CIG 006V010 P0000 T00330022
Pressure 29.59 in
Visibility 2.0 miles
Clouds Overcast 700 ft
Windchill 34 °F
Dew Point 38 °F
Humidity 98%
Rainfall 0.04 in
Snow Depth Not available.
7:09 AM 6:11 PM
Waning Crescent, 8% visible
SPECI KLNK 232317Z 03011KT 2SM -RA BR OVC007 03/02 A2959 RMK AO2 LTG DSNT NE AND E TSE03 CIG 006V010 P0000 T00330022

Get Your Daily Forecast Email!

Thanks for signing up!

Be on the lookout for a verification email in your inbox.

You'll start receiving the daily forecast at 8 AM.

×

10-Day Weather Forecast

Almanac

Astronomy

Feb. 23, 2017 Rise Set
Actual Time
Civil Twilight
Nautical Twilight
Astronomical Twilight
Moon
Length of Visible Light
Length of Day
Tomorrow will be .
, % of the Moon is Illuminated

Today's Extremes

State Highs State Lows

Community

WunderPhotos

Upload Photos

1,962,540 photos uploaded!

WunderBlog® & News

Nearby

Air Quality

  Air Quality AQ Index Pollutant
Not available.

Snow Depth

Station Depth Elevation

Earthquake Activity

City Distance Mag. Time & Date
Minimum magnitude displayed is 2.5.

Coastal Water Temperatures

Place Temperature

Stations

Nearby Weather Stations

Station Location Temp. Windchill Dew Point Humidity Wind Precip. Elev Updated Type
                   

Watches & Warnings

Winter Weather Advisory
Issued: 3:36 PM CST Feb. 23, 2017 – National Weather Service

... Winter Weather Advisory now in effect from 3 am Friday to
midnight CST Friday night...

* timing... rain will be the primary precipitation type through
about midnight before turning to a rain and snow mix early after
midnight. All snow is expected by early Friday morning. Snowfall
will continue on into Friday then gradually taper off early
Friday evening.

* Snow accumulations... snow accumulations of 2 to 5 inches are
possible.

* Impact... northerly winds of 20 to 30 mph will create areas of
blowing and possibly drifting snow resulting in reduced
visibilities, which will make traveling conditions become
hazardous.

Precautionary/preparedness actions...

A Winter Weather Advisory for snow and blowing snow means that
periods of snow with blowing snow will cause primarily travel
difficulties. Be prepared for snow covered roads and limited
visibilities, and use extra caution while driving.